createdAt,value
2022-10-13T00:00:14.080Z,11.95
2022-10-13T00:02:42.479Z,11.23
2022-10-13T00:05:09.662Z,12.75
2022-10-13T00:07:36.494Z,13.13
2022-10-13T00:10:03.619Z,12.70
2022-10-13T00:12:30.460Z,11.98
2022-10-13T00:14:58.396Z,10.85
2022-10-13T00:17:25.216Z,12.55
2022-10-13T00:19:52.074Z,11.57
2022-10-13T00:22:19.263Z,12.55
2022-10-13T00:24:51.399Z,13.02
2022-10-13T00:27:18.268Z,13.18
2022-10-13T00:29:45.177Z,12.20
2022-10-13T00:32:12.203Z,12.43
2022-10-13T00:34:39.409Z,12.57
2022-10-13T00:37:06.501Z,13.32
2022-10-13T00:39:33.351Z,12.10
2022-10-13T00:42:00.739Z,12.55
2022-10-13T00:44:59.434Z,12.98
2022-10-13T00:47:33.997Z,11.10
2022-10-13T00:50:01.633Z,11.15
2022-10-13T00:52:28.760Z,10.98
2022-10-13T00:54:56.564Z,12.07
2022-10-13T00:57:23.759Z,13.23
2022-10-13T00:59:50.988Z,12.80
2022-10-13T01:02:18.192Z,10.82
2022-10-13T01:04:47.043Z,10.80
2022-10-13T01:07:15.623Z,10.18
2022-10-13T01:09:42.799Z,11.05
2022-10-13T01:12:34.623Z,10.63
2022-10-13T01:15:18.008Z,10.85
2022-10-13T01:17:54.218Z,11.52
2022-10-13T01:20:24.184Z,10.35
2022-10-13T01:23:06.740Z,10.75
2022-10-13T01:26:25.891Z,9.88
2022-10-13T01:29:05.020Z,10.85
2022-10-13T01:31:45.989Z,11.73
2022-10-13T01:34:24.221Z,11.48
2022-10-13T01:36:55.972Z,11.10
2022-10-13T01:39:28.596Z,11.50
2022-10-13T01:42:01.276Z,11.63
2022-10-13T01:44:36.804Z,12.68
2022-10-13T01:47:04.350Z,14.15
2022-10-13T01:49:35.341Z,10.10
2022-10-13T01:52:08.635Z,10.75
2022-10-13T01:54:35.543Z,11.12
2022-10-13T01:57:02.555Z,10.20
2022-10-13T01:59:32.933Z,10.60
2022-10-13T02:02:21.788Z,10.50
2022-10-13T02:05:09.171Z,9.98
2022-10-13T02:07:53.266Z,9.52
2022-10-13T02:10:28.981Z,8.82
2022-10-13T02:13:06.848Z,9.05
2022-10-13T02:15:46.633Z,8.10
2022-10-13T02:18:15.540Z,8.90
2022-10-13T02:20:42.790Z,8.43
2022-10-13T02:23:13.651Z,8.77
2022-10-13T02:25:41.084Z,8.60
2022-10-13T02:28:08.176Z,8.23
2022-10-13T02:30:35.611Z,8.75
2022-10-13T02:33:03.071Z,9.10
2022-10-13T02:35:31.170Z,9.45
2022-10-13T02:37:58.050Z,8.73
2022-10-13T02:40:25.395Z,9.75
2022-10-13T02:42:52.261Z,9.80
2022-10-13T02:45:19.435Z,9.82
2022-10-13T02:47:46.469Z,9.20
2022-10-13T02:50:13.399Z,9.10
2022-10-13T02:52:40.294Z,8.85
2022-10-13T02:55:07.943Z,10.80
2022-10-13T02:57:34.841Z,12.32
2022-10-13T03:00:02.029Z,13.52
2022-10-13T03:02:28.902Z,14.13
2022-10-13T03:04:56.222Z,14.32
2022-10-13T03:07:23.121Z,14.48
2022-10-13T03:09:50.098Z,11.55
2022-10-13T03:12:17.317Z,10.10
2022-10-13T03:14:44.313Z,10.77
2022-10-13T03:17:13.513Z,9.40
2022-10-13T03:19:40.594Z,8.75
2022-10-13T03:22:07.447Z,8.95
2022-10-13T03:24:34.316Z,8.55
2022-10-13T03:27:01.168Z,8.50
2022-10-13T03:29:28.038Z,7.97
2022-10-13T03:31:54.887Z,8.80
2022-10-13T03:34:22.130Z,8.32
2022-10-13T03:36:49.013Z,7.37
2022-10-13T03:39:15.896Z,7.82
2022-10-13T03:41:43.149Z,7.30
2022-10-13T03:44:13.481Z,8.13
2022-10-13T03:46:40.709Z,9.75
2022-10-13T03:49:07.605Z,8.98
2022-10-13T03:51:34.436Z,8.43
2022-10-13T03:54:01.277Z,8.80
2022-10-13T03:56:28.571Z,10.05
2022-10-13T03:58:57.025Z,8.48
2022-10-13T04:01:26.012Z,8.85
2022-10-13T04:03:54.807Z,8.50
2022-10-13T04:06:22.535Z,8.43
2022-10-13T04:08:49.545Z,7.68
2022-10-13T04:11:17.406Z,8.32
2022-10-13T04:13:45.039Z,7.50
2022-10-13T04:16:21.843Z,8.43
2022-10-13T04:18:57.047Z,9.60
2022-10-13T04:21:24.522Z,9.35
2022-10-13T04:23:51.537Z,9.63
2022-10-13T04:26:20.774Z,9.23
2022-10-13T04:28:51.565Z,8.93
2022-10-13T04:31:18.948Z,10.45
2022-10-13T04:33:46.017Z,9.55
2022-10-13T04:36:14.412Z,10.02
2022-10-13T04:38:42.882Z,10.15
2022-10-13T04:41:10.743Z,10.20
2022-10-13T04:43:37.620Z,10.50
2022-10-13T04:46:15.399Z,9.48
2022-10-13T04:48:42.514Z,9.45
2022-10-13T04:51:11.986Z,15.65
2022-10-13T04:53:39.072Z,11.55
2022-10-13T04:56:08.689Z,12.68
2022-10-13T04:58:36.517Z,10.95
2022-10-13T05:01:06.077Z,10.70
2022-10-13T05:03:33.833Z,12.77
2022-10-13T05:06:01.045Z,13.38
2022-10-13T05:08:27.996Z,15.20
2022-10-13T05:10:56.825Z,14.82
2022-10-13T05:13:25.315Z,12.68
2022-10-13T05:15:52.339Z,14.55
2022-10-13T05:18:19.252Z,17.25
2022-10-13T05:20:46.930Z,16.27
2022-10-13T05:23:14.993Z,14.23
2022-10-13T05:25:42.015Z,14.75
2022-10-13T05:28:08.993Z,15.98
2022-10-13T05:30:35.883Z,15.60
2022-10-13T05:33:02.784Z,15.73
2022-10-13T05:35:29.652Z,16.20
2022-10-13T05:37:56.496Z,16.45
2022-10-13T05:40:23.439Z,15.25
2022-10-13T05:42:51.354Z,12.75
2022-10-13T05:45:19.097Z,15.35
2022-10-13T05:47:46.072Z,16.67
2022-10-13T05:50:13.042Z,17.50
2022-10-13T05:52:40.109Z,21.50
2022-10-13T05:55:09.300Z,17.98
2022-10-13T05:57:41.227Z,20.23
2022-10-13T06:00:10.339Z,21.37
2022-10-13T06:02:52.774Z,22.73
2022-10-13T06:05:21.767Z,23.38
2022-10-13T06:07:48.632Z,21.77
2022-10-13T06:10:15.803Z,20.50
2022-10-13T06:12:42.711Z,13.90
2022-10-13T06:15:10.127Z,16.62
2022-10-13T06:17:38.598Z,13.02
2022-10-13T06:20:07.066Z,11.07
2022-10-13T06:22:35.299Z,7.70
2022-10-13T06:25:02.691Z,8.70
2022-10-13T06:27:29.698Z,8.15
2022-10-13T06:29:56.923Z,8.55
2022-10-13T06:32:24.225Z,8.68
2022-10-13T06:34:51.205Z,8.55
2022-10-13T06:37:18.010Z,10.25
2022-10-13T06:39:44.843Z,10.52
2022-10-13T06:42:11.707Z,10.27
2022-10-13T06:44:38.627Z,9.75
2022-10-13T06:47:05.611Z,9.00
2022-10-13T06:49:32.447Z,10.40
2022-10-13T06:51:59.490Z,9.02
2022-10-13T06:54:26.345Z,11.23
2022-10-13T06:56:53.255Z,11.70
2022-10-13T06:59:20.301Z,12.60
2022-10-13T07:01:48.752Z,13.23
2022-10-13T07:04:15.811Z,12.73
2022-10-13T07:06:42.633Z,13.13
2022-10-13T07:09:09.559Z,13.05
2022-10-13T07:11:36.876Z,12.07
2022-10-13T07:14:03.805Z,12.13
2022-10-13T07:16:31.010Z,11.82
2022-10-13T07:18:57.857Z,11.90
2022-10-13T07:21:24.927Z,12.82
2022-10-13T07:23:51.759Z,12.60
2022-10-13T07:26:18.682Z,12.10
2022-10-13T07:28:45.650Z,12.80
2022-10-13T07:31:15.056Z,11.32
2022-10-13T07:33:43.882Z,11.20
2022-10-13T07:36:11.524Z,11.05
2022-10-13T07:38:38.567Z,9.48
2022-10-13T07:41:06.986Z,8.95
2022-10-13T07:43:34.123Z,8.60
2022-10-13T07:46:02.340Z,7.70
2022-10-13T07:48:29.204Z,7.72
2022-10-13T07:50:56.051Z,7.82
2022-10-13T07:53:22.881Z,7.03
2022-10-13T07:55:49.965Z,8.32
2022-10-13T07:58:16.897Z,7.60
2022-10-13T08:00:43.738Z,7.72
2022-10-13T08:03:10.695Z,6.85
2022-10-13T08:05:39.449Z,6.82
2022-10-13T08:08:06.357Z,6.72
2022-10-13T08:10:33.210Z,6.68
2022-10-13T08:13:00.050Z,6.90
2022-10-13T08:15:26.944Z,6.87
2022-10-13T08:17:53.858Z,6.65
2022-10-13T08:20:20.713Z,6.28
2022-10-13T08:22:47.633Z,7.12
2022-10-13T08:25:14.603Z,6.22
2022-10-13T08:27:51.157Z,6.82
2022-10-13T08:30:19.391Z,7.53
2022-10-13T08:32:46.400Z,7.28
2022-10-13T08:35:13.527Z,7.68
2022-10-13T08:37:40.381Z,7.90
2022-10-13T08:40:08.504Z,8.40
2022-10-13T08:42:35.471Z,8.38
2022-10-13T08:48:00.390Z,7.50
2022-10-13T08:50:30.472Z,7.95
2022-10-13T08:53:12.645Z,7.32
2022-10-13T08:55:44.995Z,6.90
2022-10-13T08:58:21.985Z,6.40
2022-10-13T09:03:28.143Z,7.63
2022-10-13T09:06:09.864Z,6.30
2022-10-13T09:08:58.715Z,8.32
2022-10-13T09:11:34.669Z,7.37
2022-10-13T09:14:04.668Z,7.53
2022-10-13T09:16:43.175Z,7.65
2022-10-13T09:19:24.042Z,7.10
2022-10-13T09:21:53.049Z,6.25
2022-10-13T09:24:22.121Z,7.60
2022-10-13T09:26:51.437Z,6.82
2022-10-13T09:29:25.954Z,7.37
2022-10-13T09:32:08.756Z,8.23
2022-10-13T09:34:35.652Z,8.25
2022-10-13T09:37:05.661Z,9.52
2022-10-13T09:39:33.428Z,9.70
2022-10-13T09:42:19.862Z,8.40
2022-10-13T09:44:47.561Z,9.10
2022-10-13T09:47:26.738Z,8.45
2022-10-13T09:50:15.948Z,9.95
2022-10-13T09:52:43.630Z,9.35
2022-10-13T09:55:34.540Z,7.85
2022-10-13T09:58:25.797Z,6.97
2022-10-13T10:00:53.057Z,8.23
2022-10-13T10:03:24.122Z,7.30
2022-10-13T10:06:00.272Z,6.22
2022-10-13T10:09:01.463Z,8.07
2022-10-13T10:11:42.027Z,6.43
2022-10-13T10:14:34.081Z,7.47
2022-10-13T10:17:33.455Z,6.32
2022-10-13T10:20:24.466Z,8.98
2022-10-13T10:23:38.179Z,8.98
2022-10-13T10:26:14.043Z,9.38
2022-10-13T10:29:00.394Z,8.07
2022-10-13T10:31:57.131Z,8.93
2022-10-13T10:34:29.336Z,7.43
2022-10-13T10:37:26.555Z,9.20
2022-10-13T10:40:00.268Z,10.10
2022-10-13T10:42:52.130Z,9.73
2022-10-13T10:45:23.489Z,10.20
2022-10-13T10:47:53.231Z,9.50
2022-10-13T10:50:21.065Z,9.70
2022-10-13T10:53:01.369Z,9.18
2022-10-13T10:55:51.660Z,10.02
2022-10-13T10:58:18.703Z,9.70
2022-10-13T11:00:55.717Z,9.48
2022-10-13T11:06:03.590Z,10.00
2022-10-13T11:08:42.443Z,8.88
2022-10-13T11:11:28.603Z,8.95
2022-10-13T11:14:01.303Z,10.05
2022-10-13T11:16:34.885Z,8.82
2022-10-13T11:19:20.805Z,8.65
2022-10-13T11:21:59.890Z,9.63
2022-10-13T11:24:41.587Z,8.88
2022-10-13T11:27:08.362Z,8.82
2022-10-13T11:30:01.238Z,9.30
2022-10-13T11:32:28.303Z,9.25
2022-10-13T11:34:57.963Z,9.18
2022-10-13T11:37:29.315Z,8.75
2022-10-13T11:40:09.549Z,8.98
2022-10-13T11:42:55.564Z,9.10
2022-10-13T11:45:25.287Z,8.85
2022-10-13T11:48:05.266Z,8.15
2022-10-13T11:51:12.540Z,8.48
2022-10-13T11:53:42.239Z,8.85
2022-10-13T11:56:20.270Z,7.32
2022-10-13T11:58:47.110Z,7.97
2022-10-13T12:01:16.286Z,8.55
2022-10-13T12:03:45.074Z,8.35
2022-10-13T12:06:21.134Z,8.50
2022-10-13T12:08:52.054Z,8.10
2022-10-13T12:11:30.632Z,8.15
2022-10-13T12:13:57.862Z,8.65
2022-10-13T12:16:24.866Z,8.23
2022-10-13T12:18:51.796Z,8.55
2022-10-13T12:21:22.490Z,8.80
2022-10-13T12:23:50.990Z,8.90
2022-10-13T12:26:22.920Z,8.10
2022-10-13T12:28:56.266Z,7.70
2022-10-13T12:31:28.503Z,8.50
2022-10-13T12:34:04.929Z,7.45
2022-10-13T12:36:33.753Z,8.80
2022-10-13T12:39:08.360Z,7.65
2022-10-13T12:41:36.904Z,8.18
2022-10-13T12:44:06.748Z,8.05
2022-10-13T12:46:42.999Z,7.45
2022-10-13T12:51:58.836Z,7.85
2022-10-13T12:54:31.000Z,8.10
2022-10-13T12:57:16.045Z,8.20
2022-10-13T12:59:43.293Z,8.55
2022-10-13T13:02:36.669Z,8.25
2022-10-13T13:05:37.462Z,8.38
2022-10-13T13:08:06.141Z,7.95
2022-10-13T13:10:35.219Z,8.80
2022-10-13T13:13:23.058Z,7.70
2022-10-13T13:15:50.142Z,7.68
2022-10-13T13:18:36.810Z,8.18
2022-10-13T13:21:08.433Z,7.80
2022-10-13T13:23:36.136Z,8.35
2022-10-13T13:26:23.689Z,7.90
2022-10-13T13:31:23.673Z,7.65
2022-10-13T13:33:50.536Z,7.95
2022-10-13T13:36:25.253Z,7.30
2022-10-13T13:38:53.434Z,7.35
2022-10-13T13:41:20.709Z,7.85
2022-10-13T13:43:47.851Z,7.68
2022-10-13T13:46:20.524Z,7.40
2022-10-13T13:48:47.417Z,7.60
2022-10-13T13:51:14.381Z,9.23
2022-10-13T13:53:41.292Z,7.95
2022-10-13T13:56:13.929Z,8.05
2022-10-13T13:58:40.796Z,8.05
2022-10-13T14:01:08.646Z,7.43
2022-10-13T14:03:35.507Z,7.68
2022-10-13T14:06:02.399Z,7.43
2022-10-13T14:08:33.230Z,8.07
2022-10-13T14:11:00.104Z,8.65
2022-10-13T14:13:27.026Z,7.30
2022-10-13T14:16:00.266Z,7.68
2022-10-13T14:18:27.269Z,8.10
2022-10-13T14:20:54.328Z,8.80
2022-10-13T14:23:21.439Z,7.57
2022-10-13T14:25:48.315Z,8.27
2022-10-13T14:28:18.227Z,7.53
2022-10-13T14:30:45.464Z,7.12
2022-10-13T14:33:12.408Z,8.38
2022-10-13T14:35:40.271Z,8.10
2022-10-13T14:38:07.117Z,7.53
2022-10-13T14:40:33.937Z,7.97
2022-10-13T14:43:00.916Z,8.43
2022-10-13T14:45:27.788Z,7.50
2022-10-13T14:47:54.654Z,8.07
2022-10-13T14:50:21.519Z,9.07
2022-10-13T14:52:48.379Z,8.27
2022-10-13T14:55:15.275Z,9.52
2022-10-13T14:57:42.111Z,8.90
2022-10-13T15:00:10.919Z,8.38
2022-10-13T15:02:37.760Z,8.00
2022-10-13T15:05:06.196Z,8.20
2022-10-13T15:07:33.073Z,9.15
2022-10-13T15:10:05.514Z,11.32
2022-10-13T15:12:33.492Z,10.27
2022-10-13T15:15:00.365Z,9.93
2022-10-13T15:17:28.125Z,10.70
2022-10-13T15:19:55.406Z,10.10
2022-10-13T15:22:22.570Z,12.10
2022-10-13T15:24:49.792Z,11.68
2022-10-13T15:27:16.917Z,12.32
2022-10-13T15:29:43.765Z,13.68
2022-10-13T15:32:13.674Z,17.02
2022-10-13T15:34:40.629Z,17.83
2022-10-13T15:37:07.757Z,18.77
2022-10-13T15:39:34.672Z,17.62
2022-10-13T15:42:01.714Z,16.30
2022-10-13T15:44:30.893Z,16.35
2022-10-13T15:47:07.778Z,15.85
2022-10-13T15:49:39.635Z,16.12
2022-10-13T15:52:06.558Z,15.50
2022-10-13T15:54:33.680Z,16.15
2022-10-13T15:57:00.534Z,18.87
2022-10-13T15:59:27.379Z,19.40
2022-10-13T16:01:54.230Z,23.00
2022-10-13T16:04:21.099Z,24.87
2022-10-13T16:06:47.968Z,26.23
2022-10-13T16:09:14.825Z,30.52
2022-10-13T16:11:41.818Z,35.15
2022-10-13T16:14:09.143Z,46.03
2022-10-13T16:16:35.963Z,51.17
2022-10-13T16:19:02.828Z,57.45
2022-10-13T16:21:29.684Z,59.05
2022-10-13T16:23:56.943Z,56.15
2022-10-13T16:26:23.866Z,49.50
2022-10-13T16:28:54.926Z,32.25
2022-10-13T16:31:21.798Z,40.12
2022-10-13T16:33:48.995Z,30.62
2022-10-13T16:36:18.499Z,30.00
2022-10-13T16:38:46.652Z,28.58
2022-10-13T16:41:16.268Z,25.88
2022-10-13T16:43:44.110Z,22.13
2022-10-13T16:46:15.923Z,20.15
2022-10-13T16:48:44.515Z,15.82
2022-10-13T16:51:16.737Z,14.90
2022-10-13T16:53:43.731Z,13.75
2022-10-13T16:56:15.640Z,14.55
2022-10-13T16:58:45.368Z,14.45
2022-10-13T17:01:12.706Z,14.30
2022-10-13T17:03:40.025Z,12.82
2022-10-13T17:06:07.402Z,13.18
2022-10-13T17:08:34.238Z,19.37
2022-10-13T17:11:01.561Z,20.17
2022-10-13T17:13:28.542Z,16.15
2022-10-13T17:15:57.142Z,14.68
2022-10-13T17:18:24.868Z,11.23
2022-10-13T17:20:53.532Z,10.63
2022-10-13T17:23:20.911Z,9.55
2022-10-13T17:25:48.162Z,10.18
2022-10-13T17:28:15.492Z,11.25
2022-10-13T17:30:42.458Z,12.50
2022-10-13T17:33:09.495Z,11.82
2022-10-13T17:35:36.338Z,11.55
2022-10-13T17:38:03.270Z,11.27
2022-10-13T17:40:33.837Z,13.02
2022-10-13T17:43:00.724Z,13.32
2022-10-13T17:45:27.943Z,16.17
2022-10-13T17:47:58.597Z,30.15
2022-10-13T17:50:26.462Z,25.45
2022-10-13T17:52:53.778Z,29.75
2022-10-13T17:55:20.653Z,31.15
2022-10-13T17:57:47.460Z,34.78
2022-10-13T18:00:15.051Z,31.92
2022-10-13T18:02:41.888Z,33.53
2022-10-13T18:05:08.989Z,44.72
2022-10-13T18:07:36.179Z,40.88
2022-10-13T18:10:05.097Z,28.10
2022-10-13T18:12:32.497Z,39.35
2022-10-13T18:14:59.354Z,32.63
2022-10-13T18:17:26.158Z,44.17
2022-10-13T18:19:53.566Z,40.33
2022-10-13T18:22:20.473Z,34.40
2022-10-13T18:24:47.602Z,35.88
2022-10-13T18:27:14.821Z,43.40
2022-10-13T18:29:42.693Z,26.75
2022-10-13T18:32:09.558Z,19.48
2022-10-13T18:34:36.453Z,20.92
2022-10-13T18:37:05.701Z,20.37
2022-10-13T18:39:34.545Z,19.90
2022-10-13T18:42:01.671Z,21.62
2022-10-13T18:44:28.723Z,15.65
2022-10-13T18:46:56.661Z,15.20
2022-10-13T18:49:31.079Z,17.00
2022-10-13T18:51:59.341Z,14.50
2022-10-13T18:54:26.951Z,15.80
2022-10-13T18:56:53.843Z,15.57
2022-10-13T18:59:21.014Z,17.60
2022-10-13T19:01:47.946Z,17.42
2022-10-13T19:04:16.874Z,14.00
2022-10-13T19:06:44.684Z,15.07
2022-10-13T19:09:15.076Z,16.67
2022-10-13T19:11:42.333Z,12.98
2022-10-13T19:14:11.539Z,11.88
2022-10-13T19:16:40.156Z,15.30
2022-10-13T19:19:09.389Z,12.32
2022-10-13T19:21:37.396Z,12.05
2022-10-13T19:24:04.523Z,12.77
2022-10-13T19:26:33.122Z,12.43
2022-10-13T19:29:03.488Z,13.93
2022-10-13T19:31:31.728Z,13.20
2022-10-13T19:33:59.561Z,12.48
2022-10-13T19:36:33.414Z,12.10
2022-10-13T19:39:01.020Z,18.17
2022-10-13T19:41:30.924Z,14.75
2022-10-13T19:43:58.281Z,13.35
2022-10-13T19:46:25.393Z,12.80
2022-10-13T19:48:53.390Z,13.90
2022-10-13T19:51:20.259Z,12.77
2022-10-13T19:53:47.166Z,13.13
2022-10-13T19:56:21.651Z,13.73
2022-10-13T19:58:48.498Z,12.55
2022-10-13T20:01:15.402Z,10.98
2022-10-13T20:03:42.299Z,11.98
2022-10-13T20:06:09.582Z,11.90
2022-10-13T20:08:36.809Z,10.82
2022-10-13T20:11:12.012Z,11.20
2022-10-13T20:13:38.875Z,10.82
2022-10-13T20:16:07.505Z,11.55
2022-10-13T20:18:34.953Z,12.98
2022-10-13T20:21:03.698Z,11.63
2022-10-13T20:23:31.539Z,10.57
2022-10-13T20:26:02.929Z,12.52
2022-10-13T20:28:29.792Z,11.50
2022-10-13T20:30:56.662Z,10.68
2022-10-13T20:33:23.648Z,10.90
2022-10-13T20:35:50.811Z,10.80
2022-10-13T20:38:18.413Z,11.55
2022-10-13T20:40:45.309Z,11.48
2022-10-13T20:43:12.185Z,12.18
2022-10-13T20:45:39.022Z,14.48
2022-10-13T20:48:06.013Z,16.40
2022-10-13T20:50:32.834Z,17.80
2022-10-13T20:52:59.687Z,19.15
2022-10-13T20:55:26.593Z,14.20
2022-10-13T20:57:53.461Z,14.80
2022-10-13T21:00:20.443Z,10.52
2022-10-13T21:02:48.233Z,10.38
2022-10-13T21:05:15.838Z,10.05
2022-10-13T21:07:42.822Z,11.65
2022-10-13T21:10:10.119Z,12.20
2022-10-13T21:12:37.006Z,11.65
2022-10-13T21:15:03.992Z,13.62
2022-10-13T21:17:30.877Z,15.55
2022-10-13T21:19:58.554Z,17.45
2022-10-13T21:22:25.490Z,16.98
2022-10-13T21:24:53.329Z,14.18
2022-10-13T21:27:20.351Z,15.20
2022-10-13T21:29:47.299Z,18.83
2022-10-13T21:32:14.140Z,24.33
2022-10-13T21:34:40.979Z,27.15
2022-10-13T21:37:08.319Z,29.90
2022-10-13T21:39:35.189Z,30.42
2022-10-13T21:42:02.117Z,30.80
2022-10-13T21:44:31.028Z,31.50
2022-10-13T21:46:57.906Z,31.90
2022-10-13T21:49:24.754Z,30.23
2022-10-13T21:51:51.692Z,30.10
2022-10-13T21:54:18.559Z,25.25
2022-10-13T21:56:45.349Z,25.17
2022-10-13T21:59:13.102Z,25.60
2022-10-13T22:01:40.129Z,25.62
2022-10-13T22:04:07.054Z,25.25
2022-10-13T22:06:34.471Z,27.70
2022-10-13T22:09:03.545Z,26.20
2022-10-13T22:11:33.075Z,27.15
2022-10-13T22:14:00.229Z,27.55
2022-10-13T22:16:30.452Z,26.55
2022-10-13T22:18:58.258Z,24.67
2022-10-13T22:21:27.846Z,26.15
2022-10-13T22:24:03.148Z,26.05
2022-10-13T22:26:32.548Z,27.30
2022-10-13T22:29:01.061Z,29.10
2022-10-13T22:31:28.202Z,31.12
2022-10-13T22:33:55.467Z,26.87
2022-10-13T22:36:23.693Z,20.10
2022-10-13T22:38:51.377Z,19.92
2022-10-13T22:41:19.330Z,18.42
2022-10-13T22:43:53.005Z,16.08
2022-10-13T22:46:21.690Z,16.17
2022-10-13T22:48:48.725Z,17.42
2022-10-13T22:51:18.220Z,12.07
2022-10-13T22:53:45.431Z,15.00
2022-10-13T22:56:21.638Z,13.82
2022-10-13T22:58:59.769Z,16.77
2022-10-13T23:01:27.214Z,15.82
2022-10-13T23:03:56.554Z,16.40
2022-10-13T23:06:26.081Z,12.48
2022-10-13T23:08:52.967Z,12.48
2022-10-13T23:11:20.370Z,12.40
2022-10-13T23:13:47.614Z,11.45
2022-10-13T23:16:17.322Z,11.23
2022-10-13T23:18:44.196Z,11.07
2022-10-13T23:21:13.234Z,11.57
2022-10-13T23:23:40.122Z,10.85
2022-10-13T23:26:14.001Z,11.75
2022-10-13T23:28:41.271Z,11.05
2022-10-13T23:31:13.552Z,10.90
2022-10-13T23:33:40.406Z,10.82
2022-10-13T23:36:08.419Z,12.13
2022-10-13T23:38:35.751Z,11.57
2022-10-13T23:41:07.879Z,10.50
2022-10-13T23:43:34.981Z,10.50
2022-10-13T23:46:02.071Z,10.85
2022-10-13T23:48:28.942Z,10.75
2022-10-13T23:50:56.068Z,11.40
2022-10-13T23:53:23.276Z,12.07
2022-10-13T23:55:50.267Z,12.65
2022-10-13T23:58:17.110Z,12.43
